SCC: Daytona Test practice four times

Pos Num Class ClsP Team Time Gap To 1st Speed --- --- ----- ---- ------------------------------ ---------- ------- ------- ------- 1. 6 GS 1 Blackforest Motorsports 2:01.827 ...

Pos Num Class ClsP Team                                 Time     Gap  To 1st   Speed
--- --- ----- ---- ------------------------------ ---------- ------- ------- -------
 1.   6 GS    1    Blackforest Motorsports          2:01.827                 105.198
 2.  54 GS    2    Hyper Sport                      2:02.211   0.384   0.384 104.868
 3.  55 GS    3    Hyper Sport                      2:02.218   0.007   0.391 104.862
 4.   4 GS    4    Blackforest Motorsports          2:03.069   0.851   1.242 104.137
 5. 154 GS    5    Jim Click Racing                 2:03.465   0.396   1.638 103.803
 6.  25 GS    6    Fiorano/C-MAX Racing             2:03.659   0.194   1.832 103.640
 7.  83 GS    7    BGB Motorsports                  2:03.933   0.274   2.106 103.411
 8.  59 GS    8    Rehagen Racing                   2:03.983   0.050   2.156 103.369
 9.  52 GS    9    Rehagen Racing                   2:04.370   0.387   2.543 103.047
10.  99 GS    10   Automatic Racing                 2:04.877   0.507   3.050 102.629
11.  60 GS    11   Horsepower Ranch                 2:04.891   0.014   3.064 102.617
12.  88 GS    12   LNS Motorsport                   2:05.073   0.182   3.246 102.468
13.  80 GS    13   Kinetic Motorsports              2:05.175   0.102   3.348 102.385
14.  44 GS    14   ASC Motorsports                  2:05.246   0.071   3.419 102.327
15.  09 GS    15   Automatic Racing                 2:05.406   0.160   3.579 102.196
16.  11 GS    16   Southwest Racers Group           2:05.818   0.412   3.991 101.861
17.  26 GS    17   Fiorano/C-MAX Racing             2:05.837   0.019   4.010 101.846
18.  07 GS    18   Cardiosport Racing               2:05.917   0.080   4.090 101.781
19.  46 GS    19   Fall-Line Motorsports            2:05.937   0.020   4.110 101.765
20.  28 GS    20   Fall-Line Motorsports            2:05.953   0.016   4.126 101.752
21.  79 GS    21   Kinetic Motorsports              2:06.108   0.155   4.281 101.627
22.  90 GS    22   Automatic Racing                 2:06.157   0.049   4.330 101.588
23.   3 GS    23   Blackforest Motorsports          2:06.173   0.016   4.346 101.575
24.  61 GS    24   Horsepower Ranch                 2:06.218   0.045   4.391 101.539
25.  72 GS    25   BGB Motorsports                  2:06.633   0.415   4.806 101.206
26.  17 GS    26   Team Centurion                   2:06.731   0.098   4.904 101.128
27.  10 GS    27   Spirit of Daytona Racing         2:07.213   0.482   5.386 100.744
28.  91 GS    28   Automatic Racing                 2:07.631   0.418   5.804 100.414
29.  89 GS    29   LNS Motorsport                   2:07.904   0.273   6.077 100.200
30.  87 GS    30   LNS Motorsport                   2:08.339   0.435   6.512  99.861
31.  18 GS    31   Race Prep Motorsports            2:09.251   0.912   7.424  99.156
32.  71 GS    32   Synergy Racing                   2:09.644   0.393   7.817  98.855
33.  41 GS    33   TRG                              2:10.850   1.206   9.023  97.944
34.  50 GS    34   Eastern Competition Promotorsp   2:11.426   0.576   9.599  97.515
35.  43 GS    35   ASC Motorsports                  2:11.510   0.084   9.683  97.453
36.  78 GS    36   Kinetic Motorsports              2:11.577   0.067   9.750  97.403
37.  32 ST    1    i-MOTO Racing                    2:11.589   0.012   9.762  97.394
38.  75 ST    2    Kensai Racing                    2:11.645   0.056   9.818  97.353
39.  86 ST    3    Classic BMW - Plano              2:11.884   0.239  10.057  97.176
40.  76 ST    4    Kensai Racing                    2:12.389   0.505  10.562  96.806
41.  74 ST    5    Kensai Racing                    2:12.518   0.129  10.691  96.711
42. 126 ST    6    Fountain Motorsports             2:12.621   0.103  10.794  96.636
43.  31 ST    7    i-MOTO Racing                    2:13.151   0.530  11.324  96.252
44. 125 ST    8    Fountain Motorsports             2:14.292   1.141  12.465  95.434
45.  63 ST    9    Roar Racing                      2:14.295   0.003  12.468  95.432
46. 121 ST    10   GT Racing                        2:14.449   0.154  12.622  95.322
47.  62 ST    11   Roar Racing                      2:15.871   1.422  14.044  94.325
48. 151 ST    12   Competition Marketing Motorspo   2:16.292   0.421  14.465  94.033
49.  48 ST    13   Team Cobalt California           2:17.113   0.821  15.286  93.470
50.  39 GS    37   TRG                              2:17.163   0.050  15.336  93.436
51. 118 ST    14   Rotary Power Motorsports         2:17.484   0.321  15.657  93.218
52.  24 ST    15   V-Pack Motorsport                2:17.580   0.096  15.753  93.153
53. 138 ST    16   GS Motorsport                    2:18.521   0.941  16.694  92.520
54.  12 ST    17   Southwest Racers Group           2:18.598   0.077  16.771  92.469
55.  34 ST    18   Whatever Racing                  2:19.317   0.719  17.490  91.992
56.  58 ST    19   BSI Racing                       2:20.908   1.591  19.081  90.953
57.  02 ST    20   Blackforest Motorsports          2:21.080   0.172  19.253  90.842
58.  42 GS    38   TRG                              2:21.507   0.427  19.680  90.568
59.  56 ST    21   BSI Racing                       2:22.155   0.648  20.328  90.155
60.  98 ST    22   Team Cobalt California           2:25.193   3.038  23.366  88.269
61.  40 GS    39   TRG                              3:03.064  37.871 1:01.23  70.008
62.   2 GS    40   Blackforest Motorsports           No Time
63.   5 GS    41   Blackforest Motorsports           No Time
64.   9 GS    42   Spirit of Daytona Racing          No Time
65.  38 GS    43   BGB Motorsports                   No Time
66.  14 ST    23   MY Motorsports                    No Time
67.  23 ST    24   MY Motorsports                    No Time
68.  85 ST    25   Classic BMW - Plano               No Time
69. 131 ST    26   GT Racing                         No Time

Be part of something big

Write a comment
Show comments
About this article
Series Grand-Am
Drivers Jim Click
Teams Kinetic Motorsports , Rehagen Racing , Automatic Racing , Fall-Line Motorsports